sensor_id;sensor_type;location;lat;lon;timestamp;P1;durP1;ratioP1;P2;durP2;ratioP2
75025;SDS011;63591;50.080;8.286;2023-02-11T00:03:51;24.98;;;13.82;;
75025;SDS011;63591;50.080;8.286;2023-02-11T00:06:17;28.45;;;13.48;;
75025;SDS011;63591;50.080;8.286;2023-02-11T00:08:43;27.13;;;13.70;;
75025;SDS011;63591;50.080;8.286;2023-02-11T00:11:11;26.48;;;13.70;;
75025;SDS011;63591;50.080;8.286;2023-02-11T00:13:41;26.33;;;13.83;;
75025;SDS011;63591;50.080;8.286;2023-02-11T00:16:11;25.92;;;14.10;;
75025;SDS011;63591;50.080;8.286;2023-02-11T00:18:39;27.00;;;13.52;;
75025;SDS011;63591;50.080;8.286;2023-02-11T00:21:05;29.30;;;14.40;;
75025;SDS011;63591;50.080;8.286;2023-02-11T00:23:34;27.35;;;14.00;;
75025;SDS011;63591;50.080;8.286;2023-02-11T00:26:00;28.42;;;15.32;;
75025;SDS011;63591;50.080;8.286;2023-02-11T00:28:25;29.77;;;15.40;;
75025;SDS011;63591;50.080;8.286;2023-02-11T00:30:54;30.83;;;15.83;;
75025;SDS011;63591;50.080;8.286;2023-02-11T00:33:20;29.45;;;15.18;;
75025;SDS011;63591;50.080;8.286;2023-02-11T00:35:45;31.10;;;16.33;;
75025;SDS011;63591;50.080;8.286;2023-02-11T00:38:11;31.80;;;16.67;;
75025;SDS011;63591;50.080;8.286;2023-02-11T00:40:36;31.97;;;16.33;;
75025;SDS011;63591;50.080;8.286;2023-02-11T00:43:01;33.30;;;16.37;;
75025;SDS011;63591;50.080;8.286;2023-02-11T00:45:27;32.77;;;16.53;;
75025;SDS011;63591;50.080;8.286;2023-02-11T00:47:54;32.42;;;16.73;;
75025;SDS011;63591;50.080;8.286;2023-02-11T00:50:19;34.00;;;17.40;;
75025;SDS011;63591;50.080;8.286;2023-02-11T00:52:45;36.53;;;17.93;;
75025;SDS011;63591;50.080;8.286;2023-02-11T00:55:10;38.23;;;18.37;;
75025;SDS011;63591;50.080;8.286;2023-02-11T00:57:35;36.53;;;18.40;;
75025;SDS011;63591;50.080;8.286;2023-02-11T01:00:01;35.10;;;17.80;;
75025;SDS011;63591;50.080;8.286;2023-02-11T01:02:27;37.10;;;18.02;;
75025;SDS011;63591;50.080;8.286;2023-02-11T01:04:53;33.42;;;17.48;;
75025;SDS011;63591;50.080;8.286;2023-02-11T01:07:18;32.72;;;16.90;;
75025;SDS011;63591;50.080;8.286;2023-02-11T01:09:43;35.20;;;17.67;;
75025;SDS011;63591;50.080;8.286;2023-02-11T01:12:08;31.93;;;16.60;;
75025;SDS011;63591;50.080;8.286;2023-02-11T01:14:34;30.40;;;16.50;;
75025;SDS011;63591;50.080;8.286;2023-02-11T01:16:59;31.13;;;15.83;;
75025;SDS011;63591;50.080;8.286;2023-02-11T01:19:24;33.03;;;16.70;;
75025;SDS011;63591;50.080;8.286;2023-02-11T01:21:50;30.37;;;16.43;;
75025;SDS011;63591;50.080;8.286;2023-02-11T01:24:15;30.30;;;16.80;;
75025;SDS011;63591;50.080;8.286;2023-02-11T01:26:40;31.93;;;17.00;;
75025;SDS011;63591;50.080;8.286;2023-02-11T01:29:05;34.20;;;16.45;;
75025;SDS011;63591;50.080;8.286;2023-02-11T01:31:31;34.10;;;16.67;;
75025;SDS011;63591;50.080;8.286;2023-02-11T01:33:56;31.50;;;16.70;;
75025;SDS011;63591;50.080;8.286;2023-02-11T01:36:21;35.00;;;17.17;;
75025;SDS011;63591;50.080;8.286;2023-02-11T01:38:47;30.90;;;16.87;;
75025;SDS011;63591;50.080;8.286;2023-02-11T01:41:13;29.55;;;16.35;;
75025;SDS011;63591;50.080;8.286;2023-02-11T01:43:41;33.40;;;16.77;;
75025;SDS011;63591;50.080;8.286;2023-02-11T01:49:14;31.75;;;16.17;;
75025;SDS011;63591;50.080;8.286;2023-02-11T01:54:11;32.50;;;17.33;;
75025;SDS011;63591;50.080;8.286;2023-02-11T01:56:59;33.10;;;16.60;;
75025;SDS011;63591;50.080;8.286;2023-02-11T01:59:51;33.38;;;17.20;;
75025;SDS011;63591;50.080;8.286;2023-02-11T02:02:25;29.63;;;16.27;;
75025;SDS011;63591;50.080;8.286;2023-02-11T02:07:51;30.13;;;15.75;;
75025;SDS011;63591;50.080;8.286;2023-02-11T02:10:23;32.60;;;16.90;;
75025;SDS011;63591;50.080;8.286;2023-02-11T02:12:50;31.30;;;16.80;;
75025;SDS011;63591;50.080;8.286;2023-02-11T02:18:33;32.10;;;16.63;;
75025;SDS011;63591;50.080;8.286;2023-02-11T02:21:03;31.75;;;16.77;;
75025;SDS011;63591;50.080;8.286;2023-02-11T02:23:55;30.33;;;16.65;;
75025;SDS011;63591;50.080;8.286;2023-02-11T02:26:27;33.10;;;16.42;;
75025;SDS011;63591;50.080;8.286;2023-02-11T02:31:44;32.63;;;16.30;;
75025;SDS011;63591;50.080;8.286;2023-02-11T02:37:23;31.25;;;15.68;;
75025;SDS011;63591;50.080;8.286;2023-02-11T02:39:55;33.83;;;17.02;;
75025;SDS011;63591;50.080;8.286;2023-02-11T02:42:24;30.25;;;16.33;;
75025;SDS011;63591;50.080;8.286;2023-02-11T02:44:50;32.80;;;17.40;;
75025;SDS011;63591;50.080;8.286;2023-02-11T02:47:17;32.78;;;16.92;;
75025;SDS011;63591;50.080;8.286;2023-02-11T02:49:43;32.00;;;17.20;;
75025;SDS011;63591;50.080;8.286;2023-02-11T02:52:14;32.07;;;17.40;;
75025;SDS011;63591;50.080;8.286;2023-02-11T02:54:52;35.47;;;17.45;;
75025;SDS011;63591;50.080;8.286;2023-02-11T03:00:12;29.65;;;16.42;;
75025;SDS011;63591;50.080;8.286;2023-02-11T03:07:57;33.58;;;16.98;;
75025;SDS011;63591;50.080;8.286;2023-02-11T03:12:50;31.67;;;17.43;;
75025;SDS011;63591;50.080;8.286;2023-02-11T03:15:19;33.10;;;16.77;;
75025;SDS011;63591;50.080;8.286;2023-02-11T03:17:47;31.65;;;16.92;;
75025;SDS011;63591;50.080;8.286;2023-02-11T03:20:15;33.45;;;16.77;;
75025;SDS011;63591;50.080;8.286;2023-02-11T03:22:48;31.55;;;17.05;;
75025;SDS011;63591;50.080;8.286;2023-02-11T03:25:20;31.75;;;16.77;;
75025;SDS011;63591;50.080;8.286;2023-02-11T03:27:55;33.30;;;17.40;;
75025;SDS011;63591;50.080;8.286;2023-02-11T03:30:27;34.05;;;17.42;;
75025;SDS011;63591;50.080;8.286;2023-02-11T03:33:12;32.72;;;16.65;;
75025;SDS011;63591;50.080;8.286;2023-02-11T03:35:45;31.42;;;17.17;;
75025;SDS011;63591;50.080;8.286;2023-02-11T03:38:23;32.42;;;16.48;;
75025;SDS011;63591;50.080;8.286;2023-02-11T03:40:52;30.10;;;16.05;;
75025;SDS011;63591;50.080;8.286;2023-02-11T03:43:21;33.38;;;17.17;;
75025;SDS011;63591;50.080;8.286;2023-02-11T03:45:51;32.25;;;16.83;;
75025;SDS011;63591;50.080;8.286;2023-02-11T03:48:19;31.23;;;16.17;;
75025;SDS011;63591;50.080;8.286;2023-02-11T03:50:48;32.15;;;17.10;;
75025;SDS011;63591;50.080;8.286;2023-02-11T03:53:16;31.83;;;16.60;;
75025;SDS011;63591;50.080;8.286;2023-02-11T03:55:44;31.25;;;17.35;;
75025;SDS011;63591;50.080;8.286;2023-02-11T03:58:11;31.50;;;17.42;;
75025;SDS011;63591;50.080;8.286;2023-02-11T04:00:37;30.67;;;16.30;;
75025;SDS011;63591;50.080;8.286;2023-02-11T04:03:04;31.33;;;16.70;;
75025;SDS011;63591;50.080;8.286;2023-02-11T04:05:30;32.53;;;17.50;;
75025;SDS011;63591;50.080;8.286;2023-02-11T04:07:55;31.90;;;17.13;;
75025;SDS011;63591;50.080;8.286;2023-02-11T04:10:21;34.17;;;17.87;;
75025;SDS011;63591;50.080;8.286;2023-02-11T04:12:46;30.90;;;17.27;;
75025;SDS011;63591;50.080;8.286;2023-02-11T04:15:11;31.40;;;16.70;;
75025;SDS011;63591;50.080;8.286;2023-02-11T04:17:37;32.80;;;16.90;;
75025;SDS011;63591;50.080;8.286;2023-02-11T04:20:03;32.08;;;17.58;;
75025;SDS011;63591;50.080;8.286;2023-02-11T04:22:29;30.40;;;16.20;;
75025;SDS011;63591;50.080;8.286;2023-02-11T04:24:54;34.87;;;17.77;;
75025;SDS011;63591;50.080;8.286;2023-02-11T04:27:19;31.58;;;16.58;;
75025;SDS011;63591;50.080;8.286;2023-02-11T04:29:45;32.42;;;17.33;;
75025;SDS011;63591;50.080;8.286;2023-02-11T04:32:10;32.53;;;16.63;;
75025;SDS011;63591;50.080;8.286;2023-02-11T04:34:36;28.90;;;16.83;;
75025;SDS011;63591;50.080;8.286;2023-02-11T04:37:01;32.07;;;16.77;;
75025;SDS011;63591;50.080;8.286;2023-02-11T04:39:27;30.77;;;16.90;;
75025;SDS011;63591;50.080;8.286;2023-02-11T04:41:52;31.13;;;17.00;;
75025;SDS011;63591;50.080;8.286;2023-02-11T04:44:17;31.30;;;16.80;;
75025;SDS011;63591;50.080;8.286;2023-02-11T04:46:43;30.97;;;16.57;;
75025;SDS011;63591;50.080;8.286;2023-02-11T04:49:10;30.87;;;17.10;;
75025;SDS011;63591;50.080;8.286;2023-02-11T04:51:37;33.17;;;17.98;;
75025;SDS011;63591;50.080;8.286;2023-02-11T04:54:02;30.33;;;16.17;;
75025;SDS011;63591;50.080;8.286;2023-02-11T04:56:28;32.57;;;17.07;;
75025;SDS011;63591;50.080;8.286;2023-02-11T04:58:53;32.70;;;16.93;;
75025;SDS011;63591;50.080;8.286;2023-02-11T05:01:18;32.00;;;17.20;;
75025;SDS011;63591;50.080;8.286;2023-02-11T05:03:44;33.00;;;17.20;;
75025;SDS011;63591;50.080;8.286;2023-02-11T05:06:09;30.97;;;17.70;;
75025;SDS011;63591;50.080;8.286;2023-02-11T05:08:35;33.35;;;18.05;;
75025;SDS011;63591;50.080;8.286;2023-02-11T05:11:00;32.60;;;17.33;;
75025;SDS011;63591;50.080;8.286;2023-02-11T05:13:26;32.90;;;17.10;;
75025;SDS011;63591;50.080;8.286;2023-02-11T05:15:52;33.40;;;16.80;;
75025;SDS011;63591;50.080;8.286;2023-02-11T05:18:17;30.40;;;16.77;;
75025;SDS011;63591;50.080;8.286;2023-02-11T05:20:42;30.40;;;16.23;;
75025;SDS011;63591;50.080;8.286;2023-02-11T05:23:08;30.47;;;15.93;;
75025;SDS011;63591;50.080;8.286;2023-02-11T05:25:34;30.95;;;16.85;;
75025;SDS011;63591;50.080;8.286;2023-02-11T05:27:59;32.47;;;16.80;;
75025;SDS011;63591;50.080;8.286;2023-02-11T05:30:25;32.47;;;17.57;;
75025;SDS011;63591;50.080;8.286;2023-02-11T05:32:50;30.80;;;16.97;;
75025;SDS011;63591;50.080;8.286;2023-02-11T05:35:15;29.98;;;16.55;;
75025;SDS011;63591;50.080;8.286;2023-02-11T05:37:41;32.33;;;17.20;;
75025;SDS011;63591;50.080;8.286;2023-02-11T05:40:07;31.33;;;16.97;;
75025;SDS011;63591;50.080;8.286;2023-02-11T05:42:32;30.00;;;16.63;;
75025;SDS011;63591;50.080;8.286;2023-02-11T05:44:58;32.30;;;16.50;;
75025;SDS011;63591;50.080;8.286;2023-02-11T05:47:23;28.37;;;15.83;;
75025;SDS011;63591;50.080;8.286;2023-02-11T05:49:49;30.77;;;17.23;;
75025;SDS011;63591;50.080;8.286;2023-02-11T05:52:15;30.08;;;16.55;;
75025;SDS011;63591;50.080;8.286;2023-02-11T05:54:40;34.40;;;17.83;;
75025;SDS011;63591;50.080;8.286;2023-02-11T05:57:05;32.38;;;17.05;;
75025;SDS011;63591;50.080;8.286;2023-02-11T05:59:31;30.67;;;16.23;;
75025;SDS011;63591;50.080;8.286;2023-02-11T06:01:56;30.67;;;16.77;;
75025;SDS011;63591;50.080;8.286;2023-02-11T06:04:21;31.70;;;17.43;;
75025;SDS011;63591;50.080;8.286;2023-02-11T06:06:47;30.77;;;16.97;;
75025;SDS011;63591;50.080;8.286;2023-02-11T06:09:12;30.50;;;17.77;;
75025;SDS011;63591;50.080;8.286;2023-02-11T06:11:37;29.67;;;17.23;;
75025;SDS011;63591;50.080;8.286;2023-02-11T06:14:03;30.83;;;16.90;;
75025;SDS011;63591;50.080;8.286;2023-02-11T06:16:28;31.58;;;17.08;;
75025;SDS011;63591;50.080;8.286;2023-02-11T06:18:54;30.50;;;16.70;;
75025;SDS011;63591;50.080;8.286;2023-02-11T06:21:20;30.13;;;16.65;;
75025;SDS011;63591;50.080;8.286;2023-02-11T06:23:45;30.27;;;16.92;;
75025;SDS011;63591;50.080;8.286;2023-02-11T06:26:14;32.13;;;16.83;;
75025;SDS011;63591;50.080;8.286;2023-02-11T06:28:41;31.35;;;17.15;;
75025;SDS011;63591;50.080;8.286;2023-02-11T06:31:06;30.40;;;17.03;;
75025;SDS011;63591;50.080;8.286;2023-02-11T06:33:33;31.73;;;17.15;;
75025;SDS011;63591;50.080;8.286;2023-02-11T06:35:59;32.67;;;16.98;;
75025;SDS011;63591;50.080;8.286;2023-02-11T06:38:25;30.63;;;16.83;;
75025;SDS011;63591;50.080;8.286;2023-02-11T06:40:51;30.25;;;17.67;;
75025;SDS011;63591;50.080;8.286;2023-02-11T06:43:16;35.15;;;18.77;;
75025;SDS011;63591;50.080;8.286;2023-02-11T06:45:42;29.90;;;16.93;;
75025;SDS011;63591;50.080;8.286;2023-02-11T06:48:07;32.53;;;17.33;;
75025;SDS011;63591;50.080;8.286;2023-02-11T06:50:33;30.13;;;17.52;;
75025;SDS011;63591;50.080;8.286;2023-02-11T06:52:58;30.40;;;17.20;;
75025;SDS011;63591;50.080;8.286;2023-02-11T06:55:24;31.83;;;17.10;;
75025;SDS011;63591;50.080;8.286;2023-02-11T06:57:50;28.95;;;16.58;;
75025;SDS011;63591;50.080;8.286;2023-02-11T07:00:16;32.30;;;16.93;;
75025;SDS011;63591;50.080;8.286;2023-02-11T07:02:41;30.55;;;17.77;;
75025;SDS011;63591;50.080;8.286;2023-02-11T07:05:07;29.77;;;16.97;;
75025;SDS011;63591;50.080;8.286;2023-02-11T07:07:32;30.90;;;17.80;;
75025;SDS011;63591;50.080;8.286;2023-02-11T07:09:58;31.33;;;17.25;;
75025;SDS011;63591;50.080;8.286;2023-02-11T07:12:23;30.27;;;16.67;;
75025;SDS011;63591;50.080;8.286;2023-02-11T07:14:48;29.70;;;17.43;;
75025;SDS011;63591;50.080;8.286;2023-02-11T07:17:13;31.67;;;17.57;;
75025;SDS011;63591;50.080;8.286;2023-02-11T07:19:39;30.60;;;16.90;;
75025;SDS011;63591;50.080;8.286;2023-02-11T07:22:04;30.83;;;17.30;;
75025;SDS011;63591;50.080;8.286;2023-02-11T07:24:29;29.93;;;17.00;;
75025;SDS011;63591;50.080;8.286;2023-02-11T07:26:55;29.03;;;16.83;;
75025;SDS011;63591;50.080;8.286;2023-02-11T07:29:20;30.77;;;16.90;;
75025;SDS011;63591;50.080;8.286;2023-02-11T07:31:45;34.33;;;17.90;;
75025;SDS011;63591;50.080;8.286;2023-02-11T07:34:11;32.65;;;17.48;;
75025;SDS011;63591;50.080;8.286;2023-02-11T07:36:36;29.47;;;16.63;;
75025;SDS011;63591;50.080;8.286;2023-02-11T07:39:02;34.63;;;17.30;;
75025;SDS011;63591;50.080;8.286;2023-02-11T07:41:27;31.03;;;17.03;;
75025;SDS011;63591;50.080;8.286;2023-02-11T07:43:52;30.50;;;17.67;;
75025;SDS011;63591;50.080;8.286;2023-02-11T07:46:27;31.40;;;18.27;;
75025;SDS011;63591;50.080;8.286;2023-02-11T07:48:53;29.05;;;17.20;;
75025;SDS011;63591;50.080;8.286;2023-02-11T07:51:20;30.95;;;17.77;;
75025;SDS011;63591;50.080;8.286;2023-02-11T07:53:50;32.47;;;18.50;;
75025;SDS011;63591;50.080;8.286;2023-02-11T07:56:17;31.75;;;17.70;;
75025;SDS011;63591;50.080;8.286;2023-02-11T07:58:43;32.53;;;18.85;;
75025;SDS011;63591;50.080;8.286;2023-02-11T08:01:10;31.42;;;18.23;;
75025;SDS011;63591;50.080;8.286;2023-02-11T08:03:40;31.88;;;18.35;;
75025;SDS011;63591;50.080;8.286;2023-02-11T08:06:08;32.97;;;18.90;;
75025;SDS011;63591;50.080;8.286;2023-02-11T08:08:39;33.95;;;18.30;;
75025;SDS011;63591;50.080;8.286;2023-02-11T08:11:05;33.35;;;18.90;;
75025;SDS011;63591;50.080;8.286;2023-02-11T08:13:36;32.65;;;18.48;;
75025;SDS011;63591;50.080;8.286;2023-02-11T08:16:03;31.20;;;17.30;;
75025;SDS011;63591;50.080;8.286;2023-02-11T08:18:29;34.67;;;18.25;;
75025;SDS011;63591;50.080;8.286;2023-02-11T08:20:55;31.00;;;17.20;;
75025;SDS011;63591;50.080;8.286;2023-02-11T08:23:21;32.17;;;17.60;;
75025;SDS011;63591;50.080;8.286;2023-02-11T08:25:46;32.03;;;17.43;;
75025;SDS011;63591;50.080;8.286;2023-02-11T08:28:11;30.93;;;17.23;;
75025;SDS011;63591;50.080;8.286;2023-02-11T08:30:37;28.43;;;16.53;;
75025;SDS011;63591;50.080;8.286;2023-02-11T08:33:02;29.43;;;16.40;;
75025;SDS011;63591;50.080;8.286;2023-02-11T08:35:27;30.93;;;16.90;;
75025;SDS011;63591;50.080;8.286;2023-02-11T08:37:53;30.80;;;16.65;;
75025;SDS011;63591;50.080;8.286;2023-02-11T08:40:18;29.87;;;16.33;;
75025;SDS011;63591;50.080;8.286;2023-02-11T08:42:44;28.83;;;15.63;;
75025;SDS011;63591;50.080;8.286;2023-02-11T08:45:09;29.20;;;15.70;;
75025;SDS011;63591;50.080;8.286;2023-02-11T08:47:36;28.97;;;15.93;;
75025;SDS011;63591;50.080;8.286;2023-02-11T08:50:02;27.00;;;15.35;;
75025;SDS011;63591;50.080;8.286;2023-02-11T08:52:28;27.73;;;15.27;;
75025;SDS011;63591;50.080;8.286;2023-02-11T08:54:53;28.87;;;16.10;;
75025;SDS011;63591;50.080;8.286;2023-02-11T08:57:18;27.13;;;15.55;;
75025;SDS011;63591;50.080;8.286;2023-02-11T08:59:43;30.07;;;16.40;;
75025;SDS011;63591;50.080;8.286;2023-02-11T09:02:10;30.53;;;16.73;;
75025;SDS011;63591;50.080;8.286;2023-02-11T09:04:37;29.90;;;16.88;;
75025;SDS011;63591;50.080;8.286;2023-02-11T09:07:02;29.63;;;15.77;;
75025;SDS011;63591;50.080;8.286;2023-02-11T09:09:28;28.77;;;16.02;;
75025;SDS011;63591;50.080;8.286;2023-02-11T09:11:54;26.95;;;15.98;;
75025;SDS011;63591;50.080;8.286;2023-02-11T09:14:21;29.38;;;15.88;;
75025;SDS011;63591;50.080;8.286;2023-02-11T09:16:49;28.70;;;15.38;;
75025;SDS011;63591;50.080;8.286;2023-02-11T09:19:15;28.38;;;16.35;;
75025;SDS011;63591;50.080;8.286;2023-02-11T09:21:41;28.92;;;15.48;;
75025;SDS011;63591;50.080;8.286;2023-02-11T09:24:07;28.83;;;16.30;;
75025;SDS011;63591;50.080;8.286;2023-02-11T09:26:33;29.03;;;15.43;;
75025;SDS011;63591;50.080;8.286;2023-02-11T09:28:59;29.08;;;15.73;;
75025;SDS011;63591;50.080;8.286;2023-02-11T09:31:26;28.33;;;16.02;;
75025;SDS011;63591;50.080;8.286;2023-02-11T09:33:54;31.30;;;16.08;;
75025;SDS011;63591;50.080;8.286;2023-02-11T09:36:22;29.85;;;16.55;;
75025;SDS011;63591;50.080;8.286;2023-02-11T09:38:49;32.73;;;16.57;;
75025;SDS011;63591;50.080;8.286;2023-02-11T09:43:47;32.17;;;16.05;;
75025;SDS011;63591;50.080;8.286;2023-02-11T09:46:15;32.40;;;15.88;;
75025;SDS011;63591;50.080;8.286;2023-02-11T09:48:42;31.27;;;16.15;;
75025;SDS011;63591;50.080;8.286;2023-02-11T09:51:53;33.23;;;16.80;;
75025;SDS011;63591;50.080;8.286;2023-02-11T09:54:17;34.35;;;16.77;;
75025;SDS011;63591;50.080;8.286;2023-02-11T09:57:03;33.00;;;16.40;;
75025;SDS011;63591;50.080;8.286;2023-02-11T09:59:30;30.85;;;16.38;;
75025;SDS011;63591;50.080;8.286;2023-02-11T10:02:03;31.23;;;16.77;;
75025;SDS011;63591;50.080;8.286;2023-02-11T10:04:43;32.92;;;16.20;;
75025;SDS011;63591;50.080;8.286;2023-02-11T10:07:36;30.85;;;15.63;;
75025;SDS011;63591;50.080;8.286;2023-02-11T10:13:18;34.17;;;18.30;;
75025;SDS011;63591;50.080;8.286;2023-02-11T10:15:57;31.70;;;17.38;;
75025;SDS011;63591;50.080;8.286;2023-02-11T10:21:18;33.25;;;17.33;;
75025;SDS011;63591;50.080;8.286;2023-02-11T10:23:53;29.92;;;16.27;;
75025;SDS011;63591;50.080;8.286;2023-02-11T10:26:25;34.35;;;17.08;;
75025;SDS011;63591;50.080;8.286;2023-02-11T10:28:54;32.40;;;17.00;;
75025;SDS011;63591;50.080;8.286;2023-02-11T10:31:33;32.47;;;16.38;;
75025;SDS011;63591;50.080;8.286;2023-02-11T10:34:04;31.52;;;16.10;;
75025;SDS011;63591;50.080;8.286;2023-02-11T10:36:34;31.77;;;16.65;;
75025;SDS011;63591;50.080;8.286;2023-02-11T10:39:01;30.55;;;15.77;;
75025;SDS011;63591;50.080;8.286;2023-02-11T10:41:49;28.73;;;14.73;;
75025;SDS011;63591;50.080;8.286;2023-02-11T10:44:20;28.73;;;15.23;;
75025;SDS011;63591;50.080;8.286;2023-02-11T10:47:27;28.20;;;15.13;;
75025;SDS011;63591;50.080;8.286;2023-02-11T10:49:56;26.30;;;13.93;;
75025;SDS011;63591;50.080;8.286;2023-02-11T10:52:27;29.73;;;14.82;;
75025;SDS011;63591;50.080;8.286;2023-02-11T10:55:05;29.15;;;15.25;;
75025;SDS011;63591;50.080;8.286;2023-02-11T10:57:49;26.83;;;14.15;;
75025;SDS011;63591;50.080;8.286;2023-02-11T11:00:25;28.02;;;14.88;;
75025;SDS011;63591;50.080;8.286;2023-02-11T11:03:06;30.85;;;14.95;;
75025;SDS011;63591;50.080;8.286;2023-02-11T11:08:14;25.85;;;14.40;;
75025;SDS011;63591;50.080;8.286;2023-02-11T11:10:41;28.40;;;14.17;;
75025;SDS011;63591;50.080;8.286;2023-02-11T11:13:24;29.27;;;15.15;;
75025;SDS011;63591;50.080;8.286;2023-02-11T11:18:32;25.15;;;13.32;;
75025;SDS011;63591;50.080;8.286;2023-02-11T11:21:01;27.00;;;14.00;;
75025;SDS011;63591;50.080;8.286;2023-02-11T11:23:30;26.58;;;13.82;;
75025;SDS011;63591;50.080;8.286;2023-02-11T11:28:31;28.02;;;13.73;;
75025;SDS011;63591;50.080;8.286;2023-02-11T11:31:02;24.55;;;13.25;;
75025;SDS011;63591;50.080;8.286;2023-02-11T11:33:33;24.05;;;12.30;;
75025;SDS011;63591;50.080;8.286;2023-02-11T11:38:26;25.00;;;12.67;;
75025;SDS011;63591;50.080;8.286;2023-02-11T11:41:12;26.33;;;12.85;;
75025;SDS011;63591;50.080;8.286;2023-02-11T11:44:16;23.45;;;12.38;;
75025;SDS011;63591;50.080;8.286;2023-02-11T11:46:49;24.77;;;12.40;;
75025;SDS011;63591;50.080;8.286;2023-02-11T11:49:35;23.02;;;12.55;;
75025;SDS011;63591;50.080;8.286;2023-02-11T11:54:52;24.10;;;12.45;;
75025;SDS011;63591;50.080;8.286;2023-02-11T11:57:24;23.75;;;11.60;;
75025;SDS011;63591;50.080;8.286;2023-02-11T11:59:52;22.70;;;11.85;;
75025;SDS011;63591;50.080;8.286;2023-02-11T12:02:27;24.43;;;13.03;;
75025;SDS011;63591;50.080;8.286;2023-02-11T12:05:11;23.17;;;11.65;;
75025;SDS011;63591;50.080;8.286;2023-02-11T12:07:48;21.92;;;11.63;;
75025;SDS011;63591;50.080;8.286;2023-02-11T12:13:07;21.67;;;11.43;;
75025;SDS011;63591;50.080;8.286;2023-02-11T12:19:02;22.90;;;11.52;;
75025;SDS011;63591;50.080;8.286;2023-02-11T12:36:11;23.27;;;12.68;;
75025;SDS011;63591;50.080;8.286;2023-02-11T12:44:35;21.35;;;10.82;;
75025;SDS011;63591;50.080;8.286;2023-02-11T12:50:17;20.45;;;10.90;;
75025;SDS011;63591;50.080;8.286;2023-02-11T12:55:22;19.63;;;10.27;;
75025;SDS011;63591;50.080;8.286;2023-02-11T12:57:50;18.90;;;10.27;;
75025;SDS011;63591;50.080;8.286;2023-02-11T13:02:55;18.08;;;9.23;;
75025;SDS011;63591;50.080;8.286;2023-02-11T13:05:37;18.70;;;9.60;;
75025;SDS011;63591;50.080;8.286;2023-02-11T13:08:14;17.63;;;9.05;;
75025;SDS011;63591;50.080;8.286;2023-02-11T13:10:46;17.60;;;9.43;;
75025;SDS011;63591;50.080;8.286;2023-02-11T13:13:18;18.80;;;9.15;;
75025;SDS011;63591;50.080;8.286;2023-02-11T13:15:54;17.33;;;8.90;;
75025;SDS011;63591;50.080;8.286;2023-02-11T13:26:31;17.35;;;9.18;;
75025;SDS011;63591;50.080;8.286;2023-02-11T13:31:55;16.87;;;8.53;;
75025;SDS011;63591;50.080;8.286;2023-02-11T13:37:04;15.73;;;8.20;;
75025;SDS011;63591;50.080;8.286;2023-02-11T13:39:29;15.70;;;8.20;;
75025;SDS011;63591;50.080;8.286;2023-02-11T13:42:00;16.03;;;7.80;;
75025;SDS011;63591;50.080;8.286;2023-02-11T13:44:27;14.27;;;7.82;;
75025;SDS011;63591;50.080;8.286;2023-02-11T13:46:56;14.47;;;7.73;;
75025;SDS011;63591;50.080;8.286;2023-02-11T13:49:30;15.10;;;7.75;;
75025;SDS011;63591;50.080;8.286;2023-02-11T13:51:59;14.07;;;7.70;;
75025;SDS011;63591;50.080;8.286;2023-02-11T13:54:31;14.45;;;7.93;;
75025;SDS011;63591;50.080;8.286;2023-02-11T13:59:44;18.03;;;8.53;;
75025;SDS011;63591;50.080;8.286;2023-02-11T14:10:53;17.50;;;8.80;;
75025;SDS011;63591;50.080;8.286;2023-02-11T14:21:10;21.45;;;11.40;;
75025;SDS011;63591;50.080;8.286;2023-02-11T14:23:37;19.50;;;10.50;;
75025;SDS011;63591;50.080;8.286;2023-02-11T14:26:22;20.60;;;10.37;;
75025;SDS011;63591;50.080;8.286;2023-02-11T14:34:34;17.83;;;9.00;;
75025;SDS011;63591;50.080;8.286;2023-02-11T14:40:03;17.40;;;8.93;;
75025;SDS011;63591;50.080;8.286;2023-02-11T14:42:33;16.48;;;8.68;;
75025;SDS011;63591;50.080;8.286;2023-02-11T14:45:03;20.73;;;10.95;;
75025;SDS011;63591;50.080;8.286;2023-02-11T14:47:38;16.55;;;8.38;;
75025;SDS011;63591;50.080;8.286;2023-02-11T14:50:14;15.95;;;8.18;;
75025;SDS011;63591;50.080;8.286;2023-02-11T14:52:44;16.63;;;7.80;;
75025;SDS011;63591;50.080;8.286;2023-02-11T14:58:15;15.60;;;7.93;;
75025;SDS011;63591;50.080;8.286;2023-02-11T15:01:26;14.10;;;7.30;;
75025;SDS011;63591;50.080;8.286;2023-02-11T15:03:49;15.80;;;7.13;;
75025;SDS011;63591;50.080;8.286;2023-02-11T15:06:15;15.27;;;7.90;;
75025;SDS011;63591;50.080;8.286;2023-02-11T15:08:46;16.07;;;7.80;;
75025;SDS011;63591;50.080;8.286;2023-02-11T15:11:15;14.85;;;7.35;;
75025;SDS011;63591;50.080;8.286;2023-02-11T15:13:43;14.63;;;7.18;;
75025;SDS011;63591;50.080;8.286;2023-02-11T15:16:12;13.65;;;7.20;;
75025;SDS011;63591;50.080;8.286;2023-02-11T15:18:44;13.27;;;6.80;;
75025;SDS011;63591;50.080;8.286;2023-02-11T15:21:18;13.13;;;7.03;;
75025;SDS011;63591;50.080;8.286;2023-02-11T15:23:53;13.05;;;7.10;;
75025;SDS011;63591;50.080;8.286;2023-02-11T15:26:25;14.13;;;6.40;;
75025;SDS011;63591;50.080;8.286;2023-02-11T15:28:51;11.82;;;6.50;;
75025;SDS011;63591;50.080;8.286;2023-02-11T15:31:18;12.00;;;6.37;;
75025;SDS011;63591;50.080;8.286;2023-02-11T15:33:47;12.38;;;6.60;;
75025;SDS011;63591;50.080;8.286;2023-02-11T15:36:13;11.88;;;5.90;;
75025;SDS011;63591;50.080;8.286;2023-02-11T15:38:39;11.33;;;6.13;;
75025;SDS011;63591;50.080;8.286;2023-02-11T15:41:05;13.18;;;6.38;;
75025;SDS011;63591;50.080;8.286;2023-02-11T15:43:41;12.53;;;6.57;;
75025;SDS011;63591;50.080;8.286;2023-02-11T15:46:09;11.07;;;6.03;;
75025;SDS011;63591;50.080;8.286;2023-02-11T15:48:40;12.18;;;6.35;;
75025;SDS011;63591;50.080;8.286;2023-02-11T15:51:30;13.07;;;5.82;;
75025;SDS011;63591;50.080;8.286;2023-02-11T15:53:57;15.90;;;6.82;;
75025;SDS011;63591;50.080;8.286;2023-02-11T15:56:26;11.77;;;6.10;;
75025;SDS011;63591;50.080;8.286;2023-02-11T15:58:55;11.13;;;6.20;;
75025;SDS011;63591;50.080;8.286;2023-02-11T16:01:28;12.77;;;6.13;;
75025;SDS011;63591;50.080;8.286;2023-02-11T16:03:58;11.63;;;6.07;;
75025;SDS011;63591;50.080;8.286;2023-02-11T16:06:40;9.82;;;5.45;;
75025;SDS011;63591;50.080;8.286;2023-02-11T16:14:27;12.77;;;6.35;;
75025;SDS011;63591;50.080;8.286;2023-02-11T16:16:54;14.07;;;6.85;;
75025;SDS011;63591;50.080;8.286;2023-02-11T16:19:23;11.52;;;6.72;;
75025;SDS011;63591;50.080;8.286;2023-02-11T16:21:50;13.55;;;7.55;;
75025;SDS011;63591;50.080;8.286;2023-02-11T16:26:49;13.07;;;7.80;;
75025;SDS011;63591;50.080;8.286;2023-02-11T16:29:21;15.00;;;7.83;;
75025;SDS011;63591;50.080;8.286;2023-02-11T16:31:48;14.40;;;8.38;;
75025;SDS011;63591;50.080;8.286;2023-02-11T16:34:23;15.65;;;7.90;;
75025;SDS011;63591;50.080;8.286;2023-02-11T16:36:50;14.13;;;7.88;;
75025;SDS011;63591;50.080;8.286;2023-02-11T16:39:16;14.13;;;8.10;;
75025;SDS011;63591;50.080;8.286;2023-02-11T16:41:42;15.25;;;8.63;;
75025;SDS011;63591;50.080;8.286;2023-02-11T16:44:08;14.77;;;8.53;;
75025;SDS011;63591;50.080;8.286;2023-02-11T16:46:33;15.07;;;8.53;;
75025;SDS011;63591;50.080;8.286;2023-02-11T16:49:07;14.75;;;8.50;;
75025;SDS011;63591;50.080;8.286;2023-02-11T16:51:40;15.27;;;8.73;;
75025;SDS011;63591;50.080;8.286;2023-02-11T16:54:06;15.27;;;8.38;;